createdAt,value
2023-04-13T00:03:42.346Z,20.8
2023-04-13T00:09:34.793Z,20.8
2023-04-13T00:15:27.324Z,20.8
2023-04-13T00:21:18.889Z,20.8
2023-04-13T00:27:10.257Z,20.8
2023-04-13T00:33:02.123Z,20.7
2023-04-13T00:38:53.598Z,20.7
2023-04-13T00:44:44.671Z,20.7
2023-04-13T00:50:36.849Z,20.7
2023-04-13T00:56:28.671Z,20.7
2023-04-13T01:02:20.136Z,20.7
2023-04-13T01:08:13.491Z,20.7
2023-04-13T01:13:48.022Z,20.7
2023-04-13T01:20:34.824Z,20.6
2023-04-13T01:26:26.563Z,20.6
2023-04-13T01:32:18.084Z,20.6
2023-04-13T01:37:54.611Z,20.6
2023-04-13T01:43:45.842Z,20.6
2023-04-13T01:49:37.552Z,20.6
2023-04-13T01:55:13.352Z,20.6
2023-04-13T02:01:05.477Z,20.6
2023-04-13T02:06:59.265Z,20.6
2023-04-13T02:12:50.105Z,20.6
2023-04-13T02:18:42.294Z,20.6
2023-04-13T02:24:33.152Z,20.6
2023-04-13T02:30:24.847Z,20.6
2023-04-13T02:36:17.088Z,20.6
2023-04-13T02:42:07.928Z,20.6
2023-04-13T02:47:59.598Z,20.6
2023-04-13T02:53:50.920Z,20.5
2023-04-13T02:59:41.821Z,20.5
2023-04-13T03:05:34.974Z,20.5
2023-04-13T03:11:27.737Z,20.5
2023-04-13T03:17:04.163Z,20.4
2023-04-13T03:22:55.326Z,20.4
2023-04-13T03:28:47.977Z,20.4
2023-04-13T03:34:39.757Z,20.4
2023-04-13T03:40:32.178Z,20.4
2023-04-13T03:52:00.654Z,20.4
2023-04-13T03:57:52.433Z,20.4
2023-04-13T04:03:45.249Z,20.3
2023-04-13T04:09:37.246Z,20.3
2023-04-13T04:15:32.310Z,20.3
2023-04-13T04:21:27.088Z,20.3
2023-04-13T04:27:18.485Z,20.4
2023-04-13T04:33:09.885Z,20.4
2023-04-13T04:39:03.214Z,20.4
2023-04-13T04:44:39.017Z,20.4
2023-04-13T04:50:15.234Z,20.4
2023-04-13T04:56:06.903Z,20.4
2023-04-13T05:01:58.941Z,20.4
2023-04-13T05:07:35.916Z,20.4
2023-04-13T05:13:27.871Z,20.4
2023-04-13T05:19:19.305Z,20.4
2023-04-13T05:25:13.639Z,20.4
2023-04-13T05:31:08.311Z,20.4
2023-04-13T05:36:58.990Z,20.5
2023-04-13T05:42:50.544Z,20.4
2023-04-13T05:48:43.840Z,20.4
2023-04-13T05:54:35.318Z,20.4
2023-04-13T06:00:26.468Z,20.4
2023-04-13T06:06:23.256Z,20.4
2023-04-13T06:12:14.475Z,20.4
2023-04-13T06:18:07.219Z,20.4
2023-04-13T06:24:00.066Z,20.5
2023-04-13T06:29:51.793Z,20.5
2023-04-13T06:35:43.868Z,20.5
2023-04-13T06:41:39.083Z,20.6
2023-04-13T06:47:25.775Z,20.6
2023-04-13T06:53:17.388Z,20.6
2023-04-13T06:59:09.178Z,20.6
2023-04-13T07:05:19.009Z,20.6
2023-04-13T07:11:10.176Z,20.6
2023-04-13T07:17:03.022Z,20.6
2023-04-13T07:22:38.791Z,20.6
2023-04-13T07:28:29.179Z,20.7
2023-04-13T07:34:26.060Z,20.7
2023-04-13T07:40:20.432Z,20.7
2023-04-13T07:46:11.957Z,20.8
2023-04-13T07:52:04.176Z,20.8
2023-04-13T07:57:55.281Z,20.8
2023-04-13T08:03:47.322Z,20.8
2023-04-13T08:09:43.666Z,20.8
2023-04-13T08:15:19.743Z,20.8
2023-04-13T08:21:14.284Z,20.8
2023-04-13T08:27:08.512Z,20.8
2023-04-13T08:33:01.611Z,20.8
2023-04-13T08:38:53.407Z,20.8
2023-04-13T08:44:47.085Z,20.9
2023-04-13T08:50:48.355Z,20.9
2023-04-13T08:56:28.242Z,20.9
2023-04-13T09:02:23.915Z,20.9
2023-04-13T09:08:31.683Z,20.9
2023-04-13T09:14:07.577Z,21
2023-04-13T09:19:59.789Z,21
2023-04-13T09:56:00.315Z,21.1
2023-04-13T10:01:36.125Z,21.1
2023-04-13T10:07:22.832Z,21.1
2023-04-13T10:13:21.927Z,21.1
2023-04-13T10:19:19.204Z,21.1
2023-04-13T10:25:21.963Z,21.1
2023-04-13T10:31:06.218Z,21.1
2023-04-13T10:37:05.005Z,21.1
2023-04-13T11:45:26.676Z,21.2
2023-04-13T11:51:20.398Z,21.2
2023-04-13T12:04:19.103Z,21.2
2023-04-13T12:19:30.196Z,21.3
2023-04-13T12:25:38.757Z,21.3
2023-04-13T12:31:50.148Z,21.3
2023-04-13T12:37:41.726Z,21.3
2023-04-13T12:43:34.914Z,21.3
2023-04-13T12:49:26.388Z,21.3
2023-04-13T12:55:19.377Z,21.3
2023-04-13T13:01:11.505Z,21.4
2023-04-13T13:07:11.474Z,21.4
2023-04-13T13:13:14.804Z,21.5
2023-04-13T13:19:22.497Z,21.5
2023-04-13T13:25:12.918Z,21.5
2023-04-13T13:32:26.978Z,21.6
2023-04-13T13:43:56.812Z,21.5
2023-04-13T13:49:34.194Z,21.4
2023-04-13T13:55:42.972Z,21.5
2023-04-13T14:01:18.663Z,21.4
2023-04-13T14:07:11.632Z,21.5
2023-04-13T14:12:49.785Z,21.6
2023-04-13T14:19:01.281Z,21.6
2023-04-13T14:24:53.305Z,21.6
2023-04-13T14:30:45.007Z,21.7
2023-04-13T14:36:35.185Z,21.8
2023-04-13T14:42:29.830Z,21.8
2023-04-13T14:48:22.342Z,21.8
2023-04-13T14:54:13.991Z,21.7
2023-04-13T15:00:06.255Z,21.7
2023-04-13T15:06:03.180Z,21.6
2023-04-13T15:11:54.561Z,21.6
2023-04-13T15:17:49.167Z,21.5
2023-04-13T15:23:42.122Z,21.5
2023-04-13T15:29:34.162Z,21.4
2023-04-13T15:35:27.152Z,21.4
2023-04-13T15:41:18.686Z,21.4
2023-04-13T15:47:10.699Z,21.4
2023-04-13T15:53:02.904Z,21.3
2023-04-13T15:58:54.278Z,21.4
2023-04-13T16:04:48.203Z,21.4
2023-04-13T16:10:42.902Z,21.4
2023-04-13T16:16:49.576Z,21.4
2023-04-13T16:22:41.822Z,21.5
2023-04-13T16:28:34.008Z,21.5
2023-04-13T16:34:42.088Z,21.4
2023-04-13T16:40:35.177Z,21.4
2023-04-13T16:46:27.244Z,21.3
2023-04-13T16:52:04.351Z,21.3
2023-04-13T16:57:56.577Z,21.3
2023-04-13T17:04:08.334Z,21.2
2023-04-13T17:09:59.926Z,21.2
2023-04-13T17:21:13.965Z,21.1
2023-04-13T17:27:05.903Z,21.1
2023-04-13T17:32:58.163Z,21
2023-04-13T17:38:53.712Z,21
2023-04-13T17:44:46.179Z,20.9
2023-04-13T17:50:38.701Z,20.9
2023-04-13T17:56:31.119Z,20.9
2023-04-13T18:02:25.912Z,20.9
2023-04-13T18:08:05.206Z,20.9
2023-04-13T18:13:58.937Z,20.9
2023-04-13T18:19:20.379Z,20.8
2023-04-13T18:30:19.851Z,20.8
2023-04-13T18:35:58.428Z,20.8
2023-04-13T18:41:49.964Z,20.8
2023-04-13T18:47:11.279Z,20.8
2023-04-13T18:52:47.744Z,20.7
2023-04-13T18:58:24.404Z,20.7
2023-04-13T19:09:58.971Z,20.7
2023-04-13T19:15:50.680Z,20.7
2023-04-13T19:21:43.223Z,20.7
2023-04-13T19:27:37.353Z,20.6
2023-04-13T19:33:14.391Z,20.6
2023-04-13T19:39:07.695Z,20.6
2023-04-13T19:45:00.524Z,20.6
2023-04-13T19:50:52.902Z,20.6
2023-04-13T19:56:45.355Z,20.6
2023-04-13T20:02:38.480Z,20.5
2023-04-13T20:08:31.412Z,20.5
2023-04-13T20:14:23.535Z,20.5
2023-04-13T20:20:16.729Z,20.5
2023-04-13T20:26:08.920Z,20.5
2023-04-13T20:32:03.494Z,20.6
2023-04-13T20:37:55.758Z,20.6
2023-04-13T20:43:32.620Z,20.6
2023-04-13T20:50:11.307Z,20.6
2023-04-13T20:56:02.701Z,20.6
2023-04-13T21:01:55.018Z,20.6
2023-04-13T21:07:48.344Z,20.6
2023-04-13T21:13:40.728Z,20.6
2023-04-13T21:19:35.090Z,20.6
2023-04-13T21:25:28.402Z,20.6
2023-04-13T21:42:41.561Z,20.6
2023-04-13T21:48:40.820Z,20.6
2023-04-13T21:54:32.203Z,20.6
2023-04-13T22:00:26.921Z,20.6
2023-04-13T22:06:20.990Z,20.6
2023-04-13T22:12:26.160Z,20.7
2023-04-13T22:18:20.439Z,20.7
2023-04-13T22:24:11.973Z,20.6
2023-04-13T22:29:48.693Z,20.6
2023-04-13T22:35:41.224Z,20.6
2023-04-13T22:41:33.060Z,20.6
2023-04-13T22:47:24.092Z,20.6
2023-04-13T22:53:15.744Z,20.6
2023-04-13T23:04:49.004Z,20.6
2023-04-13T23:10:25.921Z,20.7
2023-04-13T23:21:54.518Z,20.7
2023-04-13T23:27:47.022Z,20.7
2023-04-13T23:33:38.848Z,20.7
2023-04-13T23:39:30.703Z,20.6
2023-04-13T23:45:21.640Z,20.7
2023-04-13T23:51:13.962Z,20.7
2023-04-13T23:57:05.522Z,20.7
